Startpagina
METAR-TAF:

METAR-TAF

Vliegvelden :

Internationale luchthaven van Bahrein

Bahrein, Bahrein

breedte: 26-16N, lengte: 050-39E, hoogte: 2 m

Actueel weer

Dit bericht is 35 minuten geleden gemaakt, om 23:30 UTC
Wind 5 kt uit het oosten
Temperatuur 20°C
Vochtigheid 94%
Druk 1015 hPa
Zicht: 1500 m
Gebroken wolken op 500 ft
nevel

METAR: OBBI 232330Z 09005KT 1500 BR BKN005 20/19 Q1015 TEMPO 0800 FG

Tijdstip: 03:05 (00:05 UTC)

Verwachting

Dit bericht is 44 minuten geleden gemaakt, om 23:21 UTC
Verwachting geldig van 24 om 00 UTC tot 25 om 06 UTC
Wind 8 kt uit het oosten
Zicht: 8000 m
Tijdelijke
van 24 om 00 UTC tot 24 om 08 UTC
Zicht: 2000 m
Verspreide wolken op 1000 ft
Heiigheid
Kans 30% :
Tijdelijke
van 24 om 00 UTC tot 24 om 05 UTC
Zicht: 0800 m
Gebroken wolken op 500 ft
mist

TAF: OBBI 232321Z 2400/2506 09008KT 8000 NSC TEMPO 2400/2408 2000 HZ SCT010 PROB30 TEMPO 2400/2405 0800 FG BKN005

Waarnemingen en weersverwachtingen van meer dan 4000 vliegvelden (METAR en TAF).

De beschikbare stations zijn de gele en rode punten op de kaart.

Ga met uw muis naar het station om de naam te zien.

Klik dan om waarnemingen en weersverwachtingen te zien.

kaart wijzigen: klik op de groene knoppen met een zwart kruis om in te zoomen, op de groene knop met een streepje om uit te zoomen of op de groene pijlen voor aangrenzende kaarten.


METAR-TAF: